Terminal Aerodrome Forecast
Issued by NWS Springfield, MO

Home | Current Version | Previous Version | Text Only | Print | Product List | Glossary On
Versions: 1 2 3 4 5 6 7 8 9 10 11 12 13 14 15 16 17 18 19 20 21 22 23 24 25 26 27 28 29
572
FTUS43 KSGF 291120
TAFSGF
TAF
KSGF 291120Z 2912/3012 14017G25KT P6SM OVC020
     FM291700 15019G28KT P6SM BKN030
     FM292100 17015G22KT P6SM VCTS BKN030CB PROB30 2923/3003 5SM
      -TSRA OVC020CB
     FM300400 18005KT P6SM OVC010=

USA.gov is the U.S. government's official web portal to all federal, state and local government web resources and services.